Time;durP1;ratioP1;P1;durP2;ratioP2;P2;SDS_P1;SDS_P2;PMS_P1;PMS_P2;Temp;Humidity;BMP_temperature;BMP_pressure;BME280_temperature;BME280_humidity;BME280_pressure;Samples;Min_cycle;Max_cycle;Signal;HPM_P1;HPM_P2
2022/10/09 00:02:19;;;;;;;7.23;6.53;;;16.90;99.90;;;;;;6237233;28;20467;-59
2022/10/09 00:05:25;;;;;;;7.90;6.20;;;16.80;99.90;;;;;;6245740;28;20579;-60
2022/10/09 00:08:29;;;;;;;6.20;5.70;;;16.80;99.90;;;;;;6249132;28;20472;-59
2022/10/09 00:11:33;;;;;;;6.10;5.60;;;16.80;99.90;;;;;;6248955;28;20467;-60
2022/10/09 00:14:36;;;;;;;8.30;6.43;;;16.90;99.90;;;;;;6248899;28;20486;-60
2022/10/09 00:17:39;;;;;;;6.53;5.80;;;17.00;99.90;;;;;;6249531;28;20471;-61
2022/10/09 00:20:46;;;;;;;6.10;5.63;;;17.00;99.90;;;;;;6248911;28;20964;-60
2022/10/09 00:23:50;;;;;;;7.90;6.00;;;16.90;99.90;;;;;;6248645;28;20467;-60
2022/10/09 00:26:54;;;;;;;7.73;5.70;;;16.90;99.90;;;;;;6248005;28;20475;-59
2022/10/09 00:29:57;;;;;;;6.37;5.77;;;16.90;99.90;;;;;;6253689;28;20482;-59
2022/10/09 00:33:01;;;;;;;7.87;6.57;;;16.90;99.90;;;;;;6252847;28;20475;-59
2022/10/09 00:36:08;;;;;;;5.60;5.10;;;16.90;99.90;;;;;;6253089;28;20478;-59
2022/10/09 00:39:11;;;;;;;6.63;6.03;;;16.90;99.90;;;;;;6253631;28;20536;-59
2022/10/09 00:42:14;;;;;;;7.53;6.77;;;17.00;99.90;;;;;;6252955;28;20983;-59
2022/10/09 00:45:21;;;;;;;7.13;6.53;;;17.00;99.90;;;;;;6253269;28;20483;-59
2022/10/09 00:48:25;;;;;;;7.13;6.53;;;17.00;99.90;;;;;;6252899;28;20459;-59
2022/10/09 00:51:31;;;;;;;7.80;7.10;;;17.00;99.90;;;;;;6253821;28;20478;-59
2022/10/09 00:54:37;;;;;;;7.70;6.40;;;17.00;99.90;;;;;;6253430;28;20984;-60
2022/10/09 00:57:41;;;;;;;6.70;6.10;;;17.00;99.90;;;;;;6253563;28;20513;-60
2022/10/09 01:00:45;;;;;;;7.00;6.30;;;16.90;99.90;;;;;;6252375;28;20471;-60
2022/10/09 01:03:48;;;;;;;6.93;6.23;;;16.80;99.90;;;;;;6252320;28;20991;-60
2022/10/09 01:07:12;;;;;;;7.87;6.77;;;16.80;99.90;;;;;;6251885;28;20826;-60
2022/10/09 01:10:26;;;;;;;7.60;6.93;;;16.80;99.90;;;;;;6252669;28;20458;-60
2022/10/09 01:13:36;;;;;;;7.80;7.10;;;16.80;99.90;;;;;;6252232;28;20463;-60
2022/10/09 01:16:44;;;;;;;7.30;6.60;;;16.80;99.90;;;;;;6252254;28;20894;-60
2022/10/09 01:20:03;;;;;;;6.70;6.07;;;16.80;99.90;;;;;;6252512;28;20489;-60
2022/10/09 01:23:25;;;;;;;7.20;6.60;;;16.70;99.90;;;;;;6252154;28;20479;-60
2022/10/09 01:26:44;;;;;;;10.97;7.10;;;16.70;99.90;;;;;;6252174;28;20490;-59
2022/10/09 01:29:50;;;;;;;9.10;6.50;;;16.60;99.90;;;;;;6247692;28;20475;-59
2022/10/09 01:32:54;;;;;;;6.50;5.90;;;16.70;99.90;;;;;;6252934;28;20483;-59
2022/10/09 01:35:59;;;;;;;7.13;6.50;;;16.70;99.90;;;;;;6255879;28;20827;-60
2022/10/09 01:39:05;;;;;;;8.00;6.23;;;16.70;99.90;;;;;;6252125;28;20475;-59
2022/10/09 01:42:11;;;;;;;6.80;6.20;;;16.70;99.90;;;;;;6252052;28;20479;-60
2022/10/09 01:45:15;;;;;;;8.13;7.33;;;16.70;99.90;;;;;;6251951;28;20483;-59
2022/10/09 01:48:24;;;;;;;6.57;5.97;;;16.70;99.90;;;;;;6251770;28;20467;-59
2022/10/09 01:51:33;;;;;;;8.60;7.20;;;16.70;99.90;;;;;;6251903;28;20494;-60
2022/10/09 01:54:50;;;;;;;6.80;6.23;;;16.70;99.90;;;;;;6251622;28;20483;-59
2022/10/09 01:58:00;;;;;;;7.43;6.63;;;16.70;99.90;;;;;;6251139;28;20490;-60
2022/10/09 02:01:07;;;;;;;6.53;6.03;;;16.70;99.90;;;;;;6250873;28;20463;-59
2022/10/09 02:04:13;;;;;;;7.40;6.70;;;16.70;99.90;;;;;;6251150;28;20777;-59
2022/10/09 02:07:17;;;;;;;7.30;6.73;;;16.70;99.90;;;;;;6250979;28;20467;-59
2022/10/09 02:10:22;;;;;;;7.53;6.80;;;16.70;99.90;;;;;;6251113;28;20471;-59
2022/10/09 02:13:27;;;;;;;7.27;6.40;;;16.70;99.90;;;;;;6251451;28;20571;-59
2022/10/09 02:16:37;;;;;;;6.43;5.83;;;16.70;99.90;;;;;;6251439;28;20459;-60
2022/10/09 02:19:47;;;;;;;8.13;5.97;;;16.70;99.90;;;;;;6251121;28;20472;-59
2022/10/09 02:22:51;;;;;;;5.57;4.97;;;16.80;99.90;;;;;;6251115;28;20471;-60
2022/10/09 02:25:55;;;;;;;5.80;5.30;;;16.80;99.90;;;;;;6250656;28;20479;-60
2022/10/09 02:29:00;;;;;;;6.10;4.93;;;16.80;99.90;;;;;;6251347;28;20587;-60
2022/10/09 02:32:03;;;;;;;5.67;5.27;;;16.80;99.90;;;;;;6250802;28;20474;-60
2022/10/09 02:35:08;;;;;;;5.47;4.80;;;16.80;99.90;;;;;;6246335;28;20502;-60
2022/10/09 02:38:11;;;;;;;6.63;4.43;;;16.70;99.90;;;;;;6250643;28;20862;-60
2022/10/09 02:41:14;;;;;;;5.20;4.60;;;16.70;99.90;;;;;;6250443;28;20475;-60
2022/10/09 02:44:19;;;;;;;5.30;4.80;;;16.70;99.90;;;;;;6249519;28;20483;-60
2022/10/09 02:47:23;;;;;;;5.20;4.60;;;16.80;99.90;;;;;;6249374;28;20831;-60
2022/10/09 02:50:26;;;;;;;5.10;4.60;;;16.70;99.90;;;;;;6249827;28;20796;-60
2022/10/09 02:53:29;;;;;;;5.97;5.37;;;16.70;99.90;;;;;;6250131;28;20482;-60
2022/10/09 02:56:33;;;;;;;5.90;5.37;;;16.80;99.90;;;;;;6249912;28;20483;-60
2022/10/09 02:59:42;;;;;;;6.57;6.07;;;16.70;99.90;;;;;;6250078;28;20474;-60
2022/10/09 03:02:45;;;;;;;8.20;5.40;;;16.70;99.90;;;;;;6249959;28;20479;-60
2022/10/09 03:05:58;;;;;;;5.60;5.10;;;16.60;99.90;;;;;;6249797;28;20475;-60
2022/10/09 03:09:02;;;;;;;5.00;4.50;;;16.50;99.90;;;;;;6250319;28;20536;-60
2022/10/09 03:12:05;;;;;;;5.67;4.47;;;16.60;99.90;;;;;;6249524;28;21095;-60
2022/10/09 03:15:11;;;;;;;5.80;5.20;;;16.60;99.90;;;;;;6249460;28;20483;-60
2022/10/09 03:18:14;;;;;;;5.30;4.80;;;16.50;99.90;;;;;;6249471;28;20478;-60
2022/10/09 03:21:20;;;;;;;5.67;5.00;;;16.50;99.90;;;;;;6249866;28;20545;-60
2022/10/09 03:24:23;;;;;;;5.40;5.00;;;16.50;99.90;;;;;;6250435;28;20486;-60
2022/10/09 03:27:26;;;;;;;4.80;4.40;;;16.50;99.90;;;;;;6250445;28;20479;-60
2022/10/09 03:30:31;;;;;;;6.87;4.90;;;16.50;99.90;;;;;;6249948;28;20484;-60
2022/10/09 03:33:35;;;;;;;5.40;4.90;;;16.60;99.90;;;;;;6250056;28;20577;-60
2022/10/09 03:36:38;;;;;;;8.03;5.13;;;16.50;99.90;;;;;;6249621;28;20558;-60
2022/10/09 03:39:42;;;;;;;5.57;5.17;;;16.60;99.90;;;;;;6236601;28;20524;-60
2022/10/09 03:42:45;;;;;;;8.40;5.70;;;16.50;99.90;;;;;;6249405;28;20494;-60
2022/10/09 03:45:51;;;;;;;6.50;5.97;;;16.60;99.90;;;;;;6248975;28;20490;-60
2022/10/09 03:48:55;;;;;;;6.73;5.87;;;16.50;99.90;;;;;;6248917;28;20479;-60
2022/10/09 03:51:58;;;;;;;6.53;5.97;;;16.50;99.90;;;;;;6248432;28;20904;-60
2022/10/09 03:55:01;;;;;;;6.57;5.40;;;16.50;99.90;;;;;;6249052;28;20862;-60
2022/10/09 03:58:05;;;;;;;6.73;6.10;;;16.50;99.90;;;;;;6249775;28;20443;-60
2022/10/09 04:01:10;;;;;;;5.80;5.20;;;16.40;99.90;;;;;;6251563;28;20605;-60
2022/10/09 04:04:13;;;;;;;7.00;6.30;;;16.30;99.90;;;;;;6253494;28;20915;-60
2022/10/09 04:07:16;;;;;;;6.20;5.70;;;16.40;99.90;;;;;;6254238;28;20936;-60
2022/10/09 04:10:20;;;;;;;6.97;6.10;;;16.40;99.90;;;;;;6253883;28;20532;-59
2022/10/09 04:13:23;;;;;;;6.60;6.00;;;16.40;99.90;;;;;;6254196;28;20471;-59
2022/10/09 04:16:28;;;;;;;6.70;6.20;;;16.40;99.90;;;;;;6254156;28;21100;-59
2022/10/09 04:19:31;;;;;;;6.03;5.53;;;16.40;99.90;;;;;;6253810;28;20561;-60
2022/10/09 04:22:34;;;;;;;7.60;5.70;;;16.40;99.90;;;;;;6253868;28;20467;-60
2022/10/09 04:25:38;;;;;;;7.07;6.47;;;16.40;99.90;;;;;;6253523;28;20537;-60
2022/10/09 04:28:41;;;;;;;6.00;5.50;;;16.40;99.90;;;;;;6253808;28;20479;-60
2022/10/09 04:31:46;;;;;;;6.50;5.90;;;16.40;99.90;;;;;;6253427;28;20482;-60
2022/10/09 04:34:49;;;;;;;7.70;6.90;;;16.40;99.90;;;;;;6253315;28;20542;-61
2022/10/09 04:37:52;;;;;;;7.57;6.87;;;16.40;99.90;;;;;;6253715;28;20478;-60
2022/10/09 04:40:56;;;;;;;7.20;6.53;;;16.40;99.90;;;;;;6249091;28;20619;-60
2022/10/09 04:44:00;;;;;;;7.20;6.60;;;16.30;99.90;;;;;;6253892;28;20537;-61
2022/10/09 04:47:04;;;;;;;8.00;7.40;;;16.30;99.90;;;;;;6253234;28;20527;-60
2022/10/09 04:50:14;;;;;;;8.27;7.20;;;16.20;99.90;;;;;;6252882;28;20473;-61
2022/10/09 04:53:17;;;;;;;8.20;7.47;;;16.10;99.90;;;;;;6253005;28;20471;-60
2022/10/09 04:56:21;;;;;;;7.97;7.17;;;16.00;99.90;;;;;;6252717;28;20471;-60
2022/10/09 04:59:24;;;;;;;7.73;7.13;;;16.00;99.90;;;;;;6252487;28;20474;-60
2022/10/09 05:02:28;;;;;;;8.47;7.50;;;15.90;99.90;;;;;;6252787;28;20474;-60
2022/10/09 05:05:32;;;;;;;10.00;9.00;;;15.80;99.90;;;;;;6252237;28;20475;-60
2022/10/09 05:08:36;;;;;;;8.43;7.57;;;15.60;99.90;;;;;;6252543;28;20562;-60
2022/10/09 05:11:39;;;;;;;9.37;8.53;;;15.60;99.90;;;;;;6254409;28;20532;-60
2022/10/09 05:14:44;;;;;;;8.30;7.60;;;15.60;99.90;;;;;;6259593;28;20471;-60
2022/10/09 05:17:49;;;;;;;8.70;7.80;;;15.60;99.90;;;;;;6252295;28;20478;-60
2022/10/09 05:20:52;;;;;;;8.83;8.07;;;15.60;99.90;;;;;;6251809;28;20478;-59
2022/10/09 05:23:56;;;;;;;8.33;7.73;;;15.60;99.90;;;;;;6251425;28;20482;-59
2022/10/09 05:26:59;;;;;;;8.50;7.73;;;15.70;99.90;;;;;;6251645;28;20486;-59
2022/10/09 05:30:02;;;;;;;8.47;7.20;;;15.70;99.90;;;;;;6251961;28;20479;-59
2022/10/09 05:33:06;;;;;;;8.93;7.73;;;15.70;99.90;;;;;;6251845;28;20490;-59
2022/10/09 05:36:09;;;;;;;8.20;7.50;;;15.70;99.90;;;;;;6251727;28;20811;-60
2022/10/09 05:39:13;;;;;;;10.87;7.77;;;15.80;99.90;;;;;;6251848;28;20479;-60
2022/10/09 05:42:16;;;;;;;9.17;8.37;;;15.80;99.90;;;;;;6247358;28;20471;-65
2022/10/09 05:45:19;;;;;;;10.00;9.10;;;15.80;99.90;;;;;;6251690;28;20483;-66
2022/10/09 05:48:23;;;;;;;12.10;10.07;;;15.80;99.90;;;;;;6251624;28;20509;-64
2022/10/09 05:51:29;;;;;;;11.37;10.17;;;15.80;99.90;;;;;;6251434;28;20479;-65
2022/10/09 05:54:32;;;;;;;10.13;9.10;;;15.90;99.90;;;;;;6251888;28;20483;-65
2022/10/09 05:57:35;;;;;;;11.17;10.07;;;16.00;99.90;;;;;;6251362;28;21043;-64
2022/10/09 06:00:38;;;;;;;10.90;10.00;;;16.00;99.90;;;;;;6251989;28;20484;-64
2022/10/09 06:03:43;;;;;;;10.60;9.70;;;16.00;99.90;;;;;;6251567;28;20478;-67
2022/10/09 06:06:47;;;;;;;11.10;10.10;;;16.10;99.90;;;;;;6251443;28;20479;-64
2022/10/09 06:09:51;;;;;;;13.00;9.63;;;16.20;99.90;;;;;;6251266;28;20487;-64
2022/10/09 06:12:54;;;;;;;9.40;8.60;;;16.20;99.90;;;;;;6251205;28;20537;-64
2022/10/09 06:15:57;;;;;;;8.87;8.17;;;16.30;99.90;;;;;;6250801;28;20482;-63
2022/10/09 06:19:02;;;;;;;8.20;7.33;;;16.40;99.90;;;;;;6250981;28;20455;-63
2022/10/09 06:22:05;;;;;;;9.40;8.60;;;16.50;99.90;;;;;;6251083;28;20455;-64
2022/10/09 06:25:09;;;;;;;9.93;7.70;;;16.60;99.90;;;;;;6250282;28;20463;-63
2022/10/09 06:28:12;;;;;;;9.57;8.70;;;16.70;99.90;;;;;;6251388;28;20458;-64
2022/10/09 06:31:17;;;;;;;11.47;10.30;;;16.60;99.90;;;;;;6252083;28;20447;-63
2022/10/09 06:34:22;;;;;;;10.40;9.40;;;16.70;99.90;;;;;;6250201;28;20623;-64
2022/10/09 06:37:25;;;;;;;10.60;9.50;;;16.90;99.90;;;;;;6249249;28;20467;-63
2022/10/09 06:40:28;;;;;;;9.60;8.80;;;17.00;99.90;;;;;;6248858;28;20470;-63
2022/10/09 06:43:32;;;;;;;7.37;6.67;;;16.90;99.90;;;;;;6250264;28;20470;-63
2022/10/09 06:46:39;;;;;;;5.93;5.40;;;16.90;99.90;;;;;;6241455;28;20471;-63
2022/10/09 06:49:43;;;;;;;8.37;7.10;;;17.00;99.90;;;;;;6250177;28;20479;-63
2022/10/09 06:52:46;;;;;;;8.83;8.03;;;17.10;99.90;;;;;;6250960;28;20960;-64
2022/10/09 06:55:53;;;;;;;10.40;7.03;;;17.20;99.90;;;;;;6250762;28;20471;-64
2022/10/09 06:58:59;;;;;;;8.40;6.63;;;17.30;99.90;;;;;;6250602;28;20953;-59
2022/10/09 07:02:02;;;;;;;7.13;6.60;;;17.50;99.90;;;;;;6251521;28;20474;-59
2022/10/09 07:05:07;;;;;;;6.73;6.03;;;17.70;99.90;;;;;;6251155;28;20473;-59
2022/10/09 07:08:10;;;;;;;7.33;6.43;;;17.80;99.90;;;;;;6250918;28;20468;-63
2022/10/09 07:11:19;;;;;;;8.33;5.93;;;17.80;99.90;;;;;;6251076;28;20541;-64
2022/10/09 07:14:22;;;;;;;7.00;6.43;;;17.60;99.90;;;;;;6250315;28;20475;-64
2022/10/09 07:17:26;;;;;;;7.87;5.40;;;17.60;99.90;;;;;;6240372;28;20483;-64
2022/10/09 07:20:31;;;;;;;6.23;4.97;;;17.80;99.90;;;;;;6241278;28;20483;-64
2022/10/09 07:23:36;;;;;;;6.20;5.60;;;17.90;99.90;;;;;;6237883;28;20467;-64
2022/10/09 07:26:41;;;;;;;7.13;6.20;;;18.00;99.90;;;;;;6245526;28;20485;-64
2022/10/09 07:29:44;;;;;;;5.90;5.40;;;18.10;99.90;;;;;;6237586;28;20224;-64
2022/10/09 07:32:47;;;;;;;6.20;5.60;;;17.90;99.90;;;;;;6239995;28;20533;-65
2022/10/09 07:35:56;;;;;;;10.60;7.53;;;18.00;99.90;;;;;;6236580;28;20556;-64
2022/10/09 07:38:59;;;;;;;6.13;5.53;;;18.20;99.90;;;;;;6249838;28;20716;-64
2022/10/09 07:42:02;;;;;;;6.60;5.40;;;18.10;99.90;;;;;;6249879;28;20246;-64
2022/10/09 07:45:06;;;;;;;6.20;5.60;;;18.30;99.90;;;;;;6249641;28;20236;-64
2022/10/09 07:48:10;;;;;;;6.30;5.17;;;18.60;99.90;;;;;;6249406;28;20224;-64
2022/10/09 07:51:16;;;;;;;6.87;4.93;;;18.50;99.90;;;;;;6245282;28;20248;-63
2022/10/09 07:54:20;;;;;;;6.43;5.83;;;18.70;99.90;;;;;;6249421;28;20302;-65
2022/10/09 07:57:23;;;;;;;6.60;6.00;;;18.60;99.90;;;;;;6249716;28;20551;-63
2022/10/09 08:00:26;;;;;;;7.20;6.07;;;18.70;99.90;;;;;;6249509;28;20309;-63
2022/10/09 08:03:29;;;;;;;6.10;5.60;;;18.60;99.90;;;;;;6249467;28;20628;-63
2022/10/09 08:06:34;;;;;;;6.70;4.80;;;18.50;99.90;;;;;;6249282;28;20290;-59
2022/10/09 08:09:38;;;;;;;6.10;4.77;;;18.10;99.90;;;;;;6249902;28;20233;-58
2022/10/09 08:12:41;;;;;;;5.83;4.80;;;17.90;99.90;;;;;;6249793;28;20363;-59
2022/10/09 08:15:45;;;;;;;8.97;5.30;;;17.70;99.90;;;;;;6249819;28;20581;-59
2022/10/09 08:18:49;;;;;;;6.40;5.50;;;17.70;99.90;;;;;;6248996;28;20471;-59
2022/10/09 08:21:53;;;;;;;7.03;4.53;;;17.50;99.90;;;;;;6249098;28;20818;-59
2022/10/09 08:24:56;;;;;;;6.97;5.30;;;17.40;99.90;;;;;;6248689;28;20479;-60
2022/10/09 08:28:00;;;;;;;4.97;4.53;;;17.50;99.90;;;;;;6248850;28;20482;-60
2022/10/09 08:31:10;;;;;;;7.30;5.10;;;17.60;99.90;;;;;;6247396;28;20475;-60
2022/10/09 08:34:14;;;;;;;4.87;4.40;;;17.70;99.90;;;;;;6247852;28;20468;-60
2022/10/09 08:37:18;;;;;;;6.00;5.27;;;17.80;99.90;;;;;;6248046;28;20928;-60
2022/10/09 08:40:29;;;;;;;5.30;4.63;;;17.80;99.90;;;;;;6248434;28;20229;-60
2022/10/09 08:43:35;;;;;;;6.17;5.67;;;17.50;99.90;;;;;;6248596;28;20802;-60
2022/10/09 08:46:52;;;;;;;6.20;5.70;;;17.40;99.90;;;;;;6250087;28;20479;-65
2022/10/09 08:50:00;;;;;;;7.83;5.20;;;17.50;99.90;;;;;;6253678;28;20277;-65
2022/10/09 08:53:12;;;;;;;5.03;4.63;;;17.40;99.90;;;;;;6249299;28;20475;-59
2022/10/09 08:56:15;;;;;;;6.40;5.03;;;17.40;99.90;;;;;;6253472;28;20233;-59
2022/10/09 08:59:18;;;;;;;5.80;4.83;;;17.30;99.90;;;;;;6252814;28;20467;-60
2022/10/09 09:02:40;;;;;;;5.37;4.60;;;17.30;99.90;;;;;;6252799;28;20471;-59
2022/10/09 09:05:49;;;;;;;7.93;5.10;;;17.20;99.90;;;;;;6252838;28;20558;-61
2022/10/09 09:08:59;;;;;;;4.80;4.27;;;17.10;99.90;;;;;;6253463;28;20476;-64
2022/10/09 09:12:08;;;;;;;7.47;5.10;;;17.10;99.90;;;;;;6252917;28;20472;-64
2022/10/09 09:15:27;;;;;;;9.13;5.10;;;17.00;99.90;;;;;;6253093;28;20471;-59
2022/10/09 09:18:39;;;;;;;6.97;4.80;;;17.10;99.90;;;;;;6252759;28;20956;-59
2022/10/09 09:21:50;;;;;;;8.17;5.63;;;16.90;99.90;;;;;;6252632;28;20471;-59
2022/10/09 09:24:56;;;;;;;5.93;5.37;;;16.90;99.90;;;;;;6253134;28;20475;-60
2022/10/09 09:28:09;;;;;;;5.17;4.63;;;16.80;99.90;;;;;;6252925;28;20472;-59
2022/10/09 09:31:19;;;;;;;6.30;4.73;;;16.70;99.90;;;;;;6253320;28;20468;-60
2022/10/09 09:34:26;;;;;;;5.37;4.50;;;16.40;99.90;;;;;;6252549;28;20463;-64
2022/10/09 09:37:30;;;;;;;5.30;4.90;;;16.30;99.90;;;;;;6252537;28;20482;-64
2022/10/09 09:40:34;;;;;;;5.40;4.90;;;16.40;99.90;;;;;;6252201;28;21041;-64
2022/10/09 09:43:41;;;;;;;5.47;3.70;;;16.50;99.90;;;;;;6252384;28;20498;-63
2022/10/09 09:46:47;;;;;;;4.40;4.00;;;16.60;99.90;;;;;;6252260;28;20479;-60
2022/10/09 09:49:55;;;;;;;4.67;4.17;;;16.70;99.90;;;;;;6252165;28;20471;-60
2022/10/09 09:53:02;;;;;;;6.73;4.10;;;16.80;99.90;;;;;;6252149;28;20800;-61
2022/10/09 09:56:07;;;;;;;4.90;4.23;;;17.00;99.90;;;;;;6251974;28;20661;-63
2022/10/09 09:59:27;;;;;;;6.53;5.87;;;17.10;99.90;;;;;;6250631;28;20475;-63
2022/10/09 10:02:30;;;;;;;5.33;4.73;;;17.00;99.90;;;;;;6251417;28;20464;-59
2022/10/09 10:05:36;;;;;;;6.40;5.80;;;17.00;99.90;;;;;;6251392;28;20566;-59
2022/10/09 10:08:40;;;;;;;9.97;7.40;;;17.10;99.90;;;;;;6251785;28;20479;-63
2022/10/09 10:11:47;;;;;;;8.23;7.10;;;17.10;99.90;;;;;;6251733;28;20486;-59
2022/10/09 10:14:51;;;;;;;6.83;6.20;;;17.10;99.90;;;;;;6251402;28;20541;-58
2022/10/09 10:18:02;;;;;;;8.40;5.50;;;17.00;99.90;;;;;;6251321;28;20835;-59
2022/10/09 10:21:12;;;;;;;12.87;6.07;;;17.00;99.90;;;;;;6251449;28;20475;-58
2022/10/09 10:24:20;;;;;;;7.07;5.93;;;16.80;99.90;;;;;;6251595;28;20509;-64
2022/10/09 10:27:30;;;;;;;5.90;5.30;;;16.80;99.90;;;;;;6251481;28;20482;-60
2022/10/09 10:30:35;;;;;;;8.87;6.03;;;16.90;99.90;;;;;;6251368;28;20487;-59
2022/10/09 10:33:38;;;;;;;7.00;5.83;;;16.80;99.90;;;;;;6250978;28;20478;-60
2022/10/09 10:36:42;;;;;;;6.20;5.60;;;16.80;99.90;;;;;;6251088;28;20486;-60
2022/10/09 10:39:49;;;;;;;7.17;6.67;;;16.80;99.90;;;;;;6250940;28;20479;-64
2022/10/09 10:43:07;;;;;;;6.93;6.00;;;16.80;99.90;;;;;;6253373;28;20474;-64
2022/10/09 10:46:22;;;;;;;8.93;8.10;;;16.90;99.90;;;;;;6254187;28;20484;-63
2022/10/09 10:49:25;;;;;;;7.27;6.43;;;16.80;99.90;;;;;;6250916;28;20471;-63
2022/10/09 10:52:49;;;;;;;6.77;6.13;;;16.70;99.90;;;;;;6250706;28;20467;-63
2022/10/09 10:55:56;;;;;;;6.17;5.67;;;16.90;99.90;;;;;;6250411;28;20475;-60
2022/10/09 10:59:43;;;;;;;5.20;4.70;;;16.70;99.90;;;;;;6246477;28;21080;-59
2022/10/09 11:03:17;;;;;;;6.20;5.00;;;16.90;99.90;;;;;;6250204;28;20486;-63
2022/10/09 11:06:25;;;;;;;6.77;5.43;;;17.00;99.90;;;;;;6248622;28;20478;-59
2022/10/09 11:09:39;;;;;;;6.80;5.37;;;17.20;99.90;;;;;;6250235;28;20537;-59
2022/10/09 11:12:49;;;;;;;7.93;5.10;;;17.40;99.90;;;;;;6250486;28;20968;-64
2022/10/09 11:16:04;;;;;;;5.37;4.87;;;17.50;99.90;;;;;;6250478;28;20920;-59
2022/10/09 11:19:21;;;;;;;5.30;4.80;;;17.60;99.90;;;;;;6250324;28;20462;-60
2022/10/09 11:22:39;;;;;;;6.47;3.97;;;17.70;99.90;;;;;;6250605;28;20470;-59
2022/10/09 11:25:54;;;;;;;5.17;4.10;;;17.60;99.90;;;;;;6250696;28;20475;-59
2022/10/09 11:29:02;;;;;;;5.70;4.30;;;17.60;99.90;;;;;;6250469;28;20475;-65
2022/10/09 11:32:14;;;;;;;5.83;5.10;;;17.60;99.90;;;;;;6250255;28;20479;-64
2022/10/09 11:35:21;;;;;;;5.23;4.30;;;17.50;99.90;;;;;;6249521;28;20541;-66
2022/10/09 11:38:28;;;;;;;7.33;4.80;;;17.40;99.90;;;;;;6249406;28;20863;-59
2022/10/09 11:41:34;;;;;;;6.53;4.50;;;17.30;99.90;;;;;;6249843;28;20517;-64
2022/10/09 11:44:46;;;;;;;5.30;4.50;;;17.20;99.90;;;;;;6249673;28;20578;-63
2022/10/09 11:47:59;;;;;;;4.37;3.97;;;17.20;99.90;;;;;;6249985;28;20868;-64
2022/10/09 11:51:11;;;;;;;6.47;4.50;;;17.30;99.90;;;;;;6249317;28;20474;-60
2022/10/09 11:54:18;;;;;;;4.60;4.10;;;17.30;99.90;;;;;;6249603;28;20467;-64
2022/10/09 11:57:28;;;;;;;9.90;5.33;;;17.20;99.90;;;;;;6249548;28;20479;-65
2022/10/09 12:00:34;;;;;;;5.13;4.47;;;17.10;99.90;;;;;;6250028;28;20490;-60
2022/10/09 12:03:40;;;;;;;5.57;4.87;;;17.20;99.90;;;;;;6251867;28;20471;-61
2022/10/09 12:06:47;;;;;;;4.60;4.20;;;17.20;99.90;;;;;;6249925;28;20541;-59
2022/10/09 12:09:58;;;;;;;5.80;4.23;;;17.10;99.90;;;;;;6249630;28;20471;-60
2022/10/09 12:13:05;;;;;;;4.70;4.37;;;17.20;99.90;;;;;;6250023;28;20598;-64
2022/10/09 12:16:10;;;;;;;6.57;4.50;;;17.20;99.90;;;;;;6248996;28;20460;-64
2022/10/09 12:19:24;;;;;;;6.67;4.00;;;17.30;99.90;;;;;;6249696;28;20435;-64
2022/10/09 12:22:33;;;;;;;6.37;4.17;;;17.20;99.90;;;;;;6252244;28;20953;-60
2022/10/09 12:25:41;;;;;;;4.93;3.83;;;17.20;99.90;;;;;;6254664;28;20467;-59
2022/10/09 12:28:48;;;;;;;6.53;4.37;;;17.30;99.90;;;;;;6254027;28;20516;-59
2022/10/09 12:31:55;;;;;;;6.57;4.40;;;17.30;99.90;;;;;;6253900;28;20470;-59
2022/10/09 12:35:04;;;;;;;5.63;4.33;;;17.40;99.90;;;;;;6254621;28;20475;-58
2022/10/09 12:38:16;;;;;;;4.53;4.00;;;17.30;99.90;;;;;;6254079;28;20475;-59
2022/10/09 12:41:22;;;;;;;6.60;4.10;;;17.40;99.90;;;;;;6254010;28;20964;-65
2022/10/09 12:44:29;;;;;;;5.87;4.70;;;17.40;99.90;;;;;;6254324;28;20475;-59
2022/10/09 12:47:35;;;;;;;6.17;5.10;;;17.50;99.90;;;;;;6254189;28;20479;-59
2022/10/09 12:50:40;;;;;;;6.90;5.00;;;17.50;99.90;;;;;;6253718;28;20479;-60
2022/10/09 12:53:48;;;;;;;5.30;4.80;;;17.60;99.90;;;;;;6253506;28;20476;-59
2022/10/09 12:56:53;;;;;;;4.27;3.87;;;17.60;99.90;;;;;;6253341;28;20476;-60
2022/10/09 12:59:57;;;;;;;6.30;5.10;;;17.70;99.90;;;;;;6250717;28;20555;-59
2022/10/09 13:03:01;;;;;;;7.70;5.60;;;17.80;99.90;;;;;;6239199;28;20232;-60
2022/10/09 13:06:08;;;;;;;12.73;11.37;;;17.90;99.90;;;;;;6227284;28;20233;-60
2022/10/09 13:09:20;;;;;;;6.93;6.33;;;18.00;99.80;;;;;;6223707;28;20689;-64
2022/10/09 13:12:25;;;;;;;8.40;4.60;;;18.10;99.40;;;;;;6232940;28;20236;-65
2022/10/09 13:15:35;;;;;;;4.87;4.30;;;18.10;99.00;;;;;;6228684;28;20484;-65
2022/10/09 13:18:38;;;;;;;6.27;5.30;;;18.20;98.80;;;;;;6228573;28;20236;-64
2022/10/09 13:21:43;;;;;;;4.10;3.70;;;18.20;98.80;;;;;;6228189;28;20229;-65
2022/10/09 13:24:46;;;;;;;23.67;14.33;;;18.30;98.50;;;;;;6227819;28;20241;-64
2022/10/09 13:27:49;;;;;;;14.83;11.33;;;18.40;98.20;;;;;;6228164;28;20229;-65
2022/10/09 13:30:53;;;;;;;7.47;5.90;;;18.40;98.10;;;;;;6227978;28;20229;-65
2022/10/09 13:33:57;;;;;;;6.57;4.40;;;18.50;97.60;;;;;;6227517;28;20375;-65
2022/10/09 13:37:01;;;;;;;5.70;4.73;;;18.40;97.50;;;;;;6227513;28;20247;-65
2022/10/09 13:40:05;;;;;;;7.13;4.17;;;18.50;97.50;;;;;;6227102;28;20229;-63
2022/10/09 13:43:12;;;;;;;6.60;4.63;;;18.50;97.20;;;;;;6227086;28;20493;-64
2022/10/09 13:46:16;;;;;;;6.97;5.30;;;18.50;97.20;;;;;;6227622;28;20233;-65
2022/10/09 13:49:19;;;;;;;35.47;26.73;;;18.50;97.10;;;;;;6227524;28;20594;-59
2022/10/09 13:52:23;;;;;;;58.93;45.93;;;18.40;97.60;;;;;;6227198;28;20299;-59
2022/10/09 13:55:27;;;;;;;39.20;29.90;;;18.40;97.90;;;;;;6227534;28;20375;-59
2022/10/09 13:58:30;;;;;;;42.03;30.00;;;18.40;98.40;;;;;;6232420;28;20241;-58
2022/10/09 14:01:33;;;;;;;35.40;23.57;;;18.30;98.40;;;;;;6237185;28;20229;-60
2022/10/09 14:04:37;;;;;;;23.33;17.90;;;18.30;98.50;;;;;;6236308;28;20321;-64
2022/10/09 14:07:41;;;;;;;32.07;26.73;;;18.30;98.70;;;;;;6228831;28;20225;-65
2022/10/09 14:10:44;;;;;;;16.10;14.50;;;18.30;98.80;;;;;;6211881;28;20256;-64
2022/10/09 14:13:47;;;;;;;12.67;11.20;;;18.30;98.90;;;;;;6225159;28;20666;-63
2022/10/09 14:16:51;;;;;;;7.80;6.10;;;18.40;98.60;;;;;;6225214;28;20233;-63
2022/10/09 14:19:54;;;;;;;6.40;5.30;;;18.40;98.70;;;;;;6229851;28;20243;-65
2022/10/09 14:22:58;;;;;;;7.47;6.77;;;18.30;98.90;;;;;;6237859;28;20224;-64
2022/10/09 14:26:03;;;;;;;7.07;4.97;;;18.20;98.80;;;;;;6234682;28;20240;-63
2022/10/09 14:29:06;;;;;;;6.17;5.17;;;18.20;99.00;;;;;;6226322;28;20240;-63
2022/10/09 14:32:10;;;;;;;21.57;16.87;;;18.20;99.20;;;;;;6226793;28;20309;-65
2022/10/09 14:35:13;;;;;;;30.80;27.53;;;18.20;99.40;;;;;;6226670;28;20232;-64
2022/10/09 14:38:24;;;;;;;10.63;9.47;;;18.20;99.50;;;;;;6227122;28;20248;-64
2022/10/09 14:41:28;;;;;;;29.53;23.10;;;18.10;99.60;;;;;;6227969;28;20619;-65
2022/10/09 14:44:36;;;;;;;13.60;11.87;;;18.00;99.50;;;;;;6236165;28;20229;-64
2022/10/09 14:47:39;;;;;;;17.07;11.80;;;17.80;99.80;;;;;;6237834;28;20244;-63
2022/10/09 14:50:42;;;;;;;14.37;10.27;;;17.70;99.90;;;;;;6236383;28;20487;-64
2022/10/09 14:53:47;;;;;;;11.13;7.40;;;17.50;99.90;;;;;;6239802;28;20547;-65
2022/10/09 14:56:50;;;;;;;58.10;35.27;;;17.30;99.90;;;;;;6238401;28;20467;-63
2022/10/09 14:59:53;;;;;;;62.87;39.00;;;17.20;99.90;;;;;;6246502;28;20986;-63
2022/10/09 15:02:57;;;;;;;21.73;14.63;;;17.20;99.90;;;;;;6249058;28;20556;-64
2022/10/09 15:06:04;;;;;;;59.37;36.00;;;17.10;99.90;;;;;;6238480;28;20595;-64
2022/10/09 15:09:09;;;;;;;46.73;27.50;;;17.00;99.90;;;;;;6229979;28;20472;-63
2022/10/09 15:12:12;;;;;;;134.60;75.73;;;17.00;99.90;;;;;;6230251;28;21051;-63
2022/10/09 15:15:15;;;;;;;22.77;17.57;;;17.10;99.90;;;;;;6227461;28;20476;-64
2022/10/09 15:18:18;;;;;;;24.57;20.17;;;17.10;99.90;;;;;;6225390;28;20487;-64
2022/10/09 15:21:23;;;;;;;20.97;16.23;;;17.10;99.90;;;;;;6225324;28;20476;-64
2022/10/09 15:24:28;;;;;;;7.67;7.07;;;17.10;99.90;;;;;;6240031;28;20474;-63
2022/10/09 15:27:31;;;;;;;6.33;5.10;;;17.10;99.90;;;;;;6250105;28;20483;-64
2022/10/09 15:30:34;;;;;;;5.73;4.43;;;17.00;99.90;;;;;;6249678;28;20502;-64
2022/10/09 15:33:37;;;;;;;6.13;5.63;;;17.10;99.90;;;;;;6249759;28;20565;-64
2022/10/09 15:36:42;;;;;;;6.63;5.83;;;17.00;99.90;;;;;;6249793;28;20486;-64
2022/10/09 15:39:47;;;;;;;6.03;5.30;;;17.10;99.90;;;;;;6250044;28;20474;-63
2022/10/09 15:42:50;;;;;;;6.10;5.50;;;17.10;99.90;;;;;;6249569;28;21047;-62
2022/10/09 15:46:02;;;;;;;6.07;4.90;;;17.10;99.90;;;;;;6238122;28;20807;-63
2022/10/09 15:49:06;;;;;;;11.60;5.50;;;17.10;99.90;;;;;;6244989;28;20456;-62
2022/10/09 15:52:10;;;;;;;6.10;5.50;;;17.00;99.90;;;;;;6249683;28;20443;-63
2022/10/09 15:55:14;;;;;;;6.50;5.80;;;17.00;99.90;;;;;;6249471;28;20964;-63
2022/10/09 15:58:18;;;;;;;5.90;5.10;;;17.00;99.90;;;;;;6254111;28;20520;-64
2022/10/09 16:01:22;;;;;;;8.13;5.97;;;17.00;99.90;;;;;;6254385;28;20840;-64
2022/10/09 16:04:27;;;;;;;6.50;5.90;;;16.90;99.90;;;;;;6250228;28;20479;-64